Milwaukee (MKE/KMKE)

Information

Location
Milwaukee, WI
Local Time
03:13 / 3:13 am
GMT Time
08:13 / 8:13 am
Gates
C9
No FAA reported delays
METAR KMKE 270752Z 00000KT 8SM OVC043 12/11 A2988 RMK AO2 SLP119 T01170111
TAF KMKE 270520Z 2706/2812 VRB03KT P6SM FEW200 FM270800 VRB03KT 5SM BR FEW200 FM271000 VRB03KT 2SM BR FEW200 FM271300 VRB03KT P6SM FEW200 FM271700 13007KT P6SM SCT250 FM280300 VRB03KT P6SM BKN140 FM280900 07004KT P6SM BKN030